createdAt,value
2018-09-08T00:02:37.560Z,14.50
2018-09-08T00:05:06.664Z,14.50
2018-09-08T00:07:39.041Z,14.60
2018-09-08T01:02:37.697Z,14.60
2018-09-08T01:05:06.752Z,14.60
2018-09-08T01:07:35.751Z,14.70
2018-09-08T01:10:04.959Z,14.90
2018-09-08T02:02:37.809Z,13.70
2018-09-08T02:05:07.054Z,13.90
2018-09-08T02:07:36.297Z,14.10
2018-09-08T02:10:05.938Z,14.20
2018-09-08T03:02:43.291Z,13.30
2018-09-08T03:05:10.893Z,13.30
2018-09-08T03:07:38.417Z,13.40
2018-09-08T03:10:07.048Z,13.50
2018-09-08T04:03:38.121Z,12.10
2018-09-08T04:06:07.182Z,12.10
2018-09-08T04:08:36.182Z,12.20
2018-09-08T04:11:05.429Z,12.40
2018-09-08T05:03:05.796Z,12.70
2018-09-08T05:05:34.836Z,12.80
2018-09-08T05:08:03.884Z,13.00
2018-09-08T05:10:32.941Z,13.20
2018-09-08T06:02:54.980Z,14.60
2018-09-08T06:05:24.030Z,14.80
2018-09-08T06:07:53.052Z,15.10
2018-09-08T06:10:23.431Z,15.50
2018-09-08T07:03:07.765Z,17.90
2018-09-08T07:05:36.774Z,18.10
2018-09-08T07:08:05.815Z,18.30
2018-09-08T08:02:56.164Z,20.10
2018-09-08T08:05:25.187Z,20.10
2018-09-08T08:07:54.204Z,20.40
2018-09-08T08:10:23.437Z,20.70
2018-09-08T09:02:58.689Z,22.00
2018-09-08T09:05:27.779Z,22.30
2018-09-08T09:07:56.864Z,22.50
2018-09-08T09:10:26.065Z,22.70
2018-09-08T10:03:20.488Z,22.00
2018-09-08T10:05:49.483Z,21.90
2018-09-08T10:08:18.463Z,22.20
2018-09-08T10:10:47.716Z,22.40
2018-09-08T11:02:37.501Z,21.40
2018-09-08T11:05:06.367Z,21.50
2018-09-08T11:07:35.390Z,21.60
2018-09-08T11:10:04.602Z,21.70
2018-09-08T12:03:14.556Z,21.10
2018-09-08T12:05:44.605Z,21.10
2018-09-08T12:08:13.633Z,21.20
2018-09-08T13:03:12.362Z,22.30
2018-09-08T13:05:41.358Z,22.50
2018-09-08T13:08:10.457Z,22.70
2018-09-08T13:10:40.283Z,22.80
2018-09-08T14:02:37.832Z,23.50
2018-09-08T14:05:06.852Z,23.50
2018-09-08T14:07:35.930Z,23.70
2018-09-08T14:10:05.188Z,23.70
2018-09-08T15:02:48.553Z,22.40
2018-09-08T15:05:17.595Z,22.30
2018-09-08T15:07:46.605Z,22.40
2018-09-08T15:10:15.903Z,22.50
2018-09-08T16:02:37.349Z,20.10
2018-09-08T16:05:06.422Z,19.90
2018-09-08T16:07:35.614Z,20.00
2018-09-08T16:10:04.827Z,20.20
2018-09-08T17:02:55.597Z,17.20
2018-09-08T17:05:24.663Z,17.10
2018-09-08T17:07:53.750Z,17.20
2018-09-08T18:02:42.333Z,15.30
2018-09-08T18:05:12.188Z,15.30
2018-09-08T18:07:41.267Z,15.40
2018-09-08T18:10:10.801Z,15.60
2018-09-08T19:02:39.987Z,14.70
2018-09-08T19:05:08.983Z,14.70
2018-09-08T19:07:38.037Z,14.80
2018-09-08T19:10:07.628Z,15.10
2018-09-08T20:02:37.043Z,14.40
2018-09-08T20:05:06.169Z,14.40
2018-09-08T20:07:35.402Z,14.60
2018-09-08T20:10:04.659Z,14.80
2018-09-08T21:02:46.760Z,13.80
2018-09-08T21:05:15.766Z,13.70
2018-09-08T21:07:44.879Z,13.80
2018-09-08T21:10:14.529Z,14.00
2018-09-08T22:03:06.373Z,13.50
2018-09-08T22:05:35.396Z,13.60
2018-09-08T22:08:04.484Z,13.80
2018-09-08T22:10:33.693Z,14.10
2018-09-08T23:02:37.477Z,13.70
2018-09-08T23:05:06.520Z,13.70
2018-09-08T23:07:35.524Z,13.80
2018-09-08T23:10:04.696Z,14.00
